Time;durP1;ratioP1;P1;durP2;ratioP2;P2;SDS_P1;SDS_P2;PMS_P1;PMS_P2;Temp;Humidity;BMP_temperature;BMP_pressure;BME280_temperature;BME280_humidity;BME280_pressure;Samples;Min_cycle;Max_cycle;Signal;HPM_P1;HPM_P2
2024/02/07 00:00:30;;;;;;;9.80;4.20;;;;;;;4.61;59.15;94705.75;5010342;28;20065;-71
2024/02/07 00:02:55;;;;;;;7.65;3.70;;;;;;;4.68;57.68;94701.88;5009346;28;20029;-71
2024/02/07 00:05:21;;;;;;;8.90;4.38;;;;;;;4.57;58.58;94710.28;4998601;28;20402;-71
2024/02/07 00:07:46;;;;;;;9.15;4.13;;;;;;;4.86;57.97;94700.75;5006187;28;20029;-71
2024/02/07 00:10:12;;;;;;;7.07;3.83;;;;;;;4.63;57.90;94712.47;5000347;28;20042;-71
2024/02/07 00:12:37;;;;;;;7.05;4.20;;;;;;;4.54;57.54;94696.75;5000189;28;20033;-71
2024/02/07 00:15:04;;;;;;;14.35;7.85;;;;;;;4.67;56.71;94711.34;5003429;28;20088;-71
2024/02/07 00:17:30;;;;;;;10.27;5.72;;;;;;;4.50;57.43;94705.59;5001805;28;20037;-71
2024/02/07 00:19:55;;;;;;;11.40;5.68;;;;;;;4.69;58.06;94706.94;5010031;28;20041;-72
2024/02/07 00:22:21;;;;;;;9.15;4.90;;;;;;;4.53;58.08;94702.81;5005018;28;20417;-71
2024/02/07 00:24:46;;;;;;;8.82;4.45;;;;;;;4.46;58.12;94695.47;5002086;28;20049;-71
2024/02/07 00:27:11;;;;;;;6.50;4.10;;;;;;;4.44;58.06;94706.78;4975677;28;20038;-71
2024/02/07 00:29:37;;;;;;;5.60;3.53;;;;;;;4.35;59.41;94697.88;5002531;28;20046;-71
2024/02/07 00:32:02;;;;;;;6.28;3.65;;;;;;;4.36;58.11;94703.84;4995457;28;20033;-71
2024/02/07 00:34:29;;;;;;;11.27;6.05;;;;;;;4.29;58.12;94705.97;5006181;28;20049;-71
2024/02/07 00:36:54;;;;;;;5.93;3.50;;;;;;;4.08;58.17;94702.91;4998270;28;20531;-72
2024/02/07 00:39:19;;;;;;;12.10;5.95;;;;;;;3.98;59.37;94679.50;5007829;28;20041;-71
2024/02/07 00:41:45;;;;;;;7.35;3.70;;;;;;;3.98;60.93;94700.06;5027812;28;20029;-71
2024/02/07 00:44:10;;;;;;;10.45;4.05;;;;;;;4.03;59.63;94697.22;4993974;28;20040;-71
2024/02/07 00:46:36;;;;;;;6.10;3.53;;;;;;;3.87;60.22;94675.88;5028159;28;20040;-71
2024/02/07 00:49:03;;;;;;;6.47;3.70;;;;;;;3.79;61.00;94694.34;5009485;28;20041;-72
2024/02/07 00:51:30;;;;;;;13.70;6.85;;;;;;;3.81;60.13;94689.94;5027579;28;20499;-71
2024/02/07 00:53:55;;;;;;;9.85;5.20;;;;;;;3.49;61.32;94690.06;5009169;28;20025;-71
2024/02/07 00:56:21;;;;;;;7.28;4.35;;;;;;;3.72;62.41;94698.19;5030444;28;20076;-71
2024/02/07 00:58:46;;;;;;;7.20;3.90;;;;;;;3.60;63.06;94684.31;4991606;28;20026;-71
2024/02/07 01:01:12;;;;;;;6.32;3.70;;;;;;;3.56;61.79;94668.22;5011425;28;20030;-71
2024/02/07 01:03:38;;;;;;;5.75;3.42;;;;;;;3.84;61.14;94679.47;5009383;28;20124;-71
2024/02/07 01:06:04;;;;;;;8.40;3.55;;;;;;;3.99;60.57;94677.75;4990640;28;20150;-71
2024/02/07 01:08:29;;;;;;;8.90;3.65;;;;;;;4.08;61.17;94676.38;5006873;28;20028;-71
2024/02/07 01:10:55;;;;;;;15.05;10.07;;;;;;;4.09;59.46;94680.59;5007016;28;20507;-71
2024/02/07 01:13:20;;;;;;;12.52;8.13;;;;;;;3.94;60.16;94672.88;5010782;28;20025;-71
2024/02/07 01:15:46;;;;;;;9.75;4.30;;;;;;;3.83;61.47;94666.72;4992323;28;20563;-71
2024/02/07 01:18:11;;;;;;;10.30;5.45;;;;;;;3.72;61.95;94668.16;5027572;28;20423;-71
2024/02/07 01:20:36;;;;;;;14.00;9.25;;;;;;;3.86;60.38;94672.50;4992906;28;20069;-71
2024/02/07 01:23:02;;;;;;;15.32;10.02;;;;;;;3.58;61.17;94683.56;5026643;28;20514;-71
2024/02/07 01:25:27;;;;;;;12.45;7.80;;;;;;;3.63;61.63;94670.47;5010262;28;20511;-71
2024/02/07 01:27:54;;;;;;;17.13;8.57;;;;;;;3.44;61.76;94674.06;4991700;28;20088;-71
2024/02/07 01:30:20;;;;;;;12.00;7.22;;;;;;;3.53;61.81;94678.66;5008358;28;20044;-71
2024/02/07 01:32:45;;;;;;;13.57;6.72;;;;;;;3.52;62.14;94669.31;4986551;28;20459;-71
2024/02/07 01:35:11;;;;;;;6.53;4.43;;;;;;;3.57;61.93;94654.47;5007400;28;20519;-71
2024/02/07 01:37:38;;;;;;;8.93;4.30;;;;;;;3.84;62.03;94674.31;5009181;28;20053;-72
2024/02/07 01:40:06;;;;;;;7.88;3.78;;;;;;;3.76;62.51;94655.97;5013014;28;20030;-71
2024/02/07 01:42:32;;;;;;;5.00;3.47;;;;;;;3.67;61.39;94647.03;4997342;28;20045;-71
2024/02/07 01:45:30;;;;;;;6.80;3.75;;;;;;;3.63;61.11;94665.31;5012037;28;20119;-71
2024/02/07 01:47:55;;;;;;;9.48;4.95;;;;;;;3.54;61.56;94644.38;4996029;28;20046;-71
2024/02/07 01:50:21;;;;;;;7.30;4.55;;;;;;;3.36;62.22;94653.97;5006786;28;20464;-71
2024/02/07 01:52:47;;;;;;;5.70;3.30;;;;;;;3.55;62.41;94635.75;4999704;28;20026;-71
2024/02/07 01:55:12;;;;;;;5.55;3.35;;;;;;;3.48;62.46;94646.47;5005273;28;20030;-72
2024/02/07 01:57:39;;;;;;;4.82;3.22;;;;;;;3.22;62.96;94640.25;4994112;28;20036;-72
2024/02/07 02:00:06;;;;;;;6.90;3.40;;;;;;;3.31;62.65;94642.28;5010858;28;20084;-71
2024/02/07 02:02:32;;;;;;;4.35;3.00;;;;;;;2.93;62.36;94627.34;4978579;28;20038;-71
2024/02/07 02:04:58;;;;;;;5.22;3.83;;;;;;;3.02;62.97;94647.34;4989079;28;20485;-71
2024/02/07 02:07:23;;;;;;;8.32;4.50;;;;;;;2.98;62.64;94643.31;5023288;28;20037;-71
2024/02/07 02:09:49;;;;;;;5.63;3.95;;;;;;;2.95;64.43;94642.63;4996692;28;20038;-71
2024/02/07 02:12:14;;;;;;;7.43;4.32;;;;;;;2.95;63.61;94638.31;5008367;28;20416;-71
2024/02/07 02:14:40;;;;;;;8.48;4.30;;;;;;;2.78;64.41;94641.81;5003489;28;20468;-71
2024/02/07 02:17:05;;;;;;;5.18;3.50;;;;;;;3.07;64.37;94645.34;4995144;28;20041;-71
2024/02/07 02:19:31;;;;;;;5.75;3.60;;;;;;;2.98;63.32;94639.88;5031825;28;20107;-71
2024/02/07 02:22:06;;;;;;;5.75;3.40;;;;;;;2.99;63.20;94637.25;5008332;28;20029;-71
2024/02/07 02:25:09;;;;;;;7.07;3.35;;;;;;;2.86;63.18;94651.66;5014786;28;20550;-71
2024/02/07 02:27:37;;;;;;;11.23;6.13;;;;;;;2.84;63.02;94645.78;5032519;28;20088;-71
2024/02/07 02:30:09;;;;;;;14.25;7.68;;;;;;;2.66;63.76;94630.50;5015131;28;20543;-71
2024/02/07 02:32:35;;;;;;;12.98;5.35;;;;;;;2.73;64.84;94646.41;4994061;28;20200;-71
2024/02/07 02:35:01;;;;;;;5.28;3.35;;;;;;;2.80;64.65;94644.31;5006472;28;20136;-71
2024/02/07 02:37:27;;;;;;;6.25;3.45;;;;;;;2.66;64.59;94634.81;4998262;28;20037;-71
2024/02/07 02:39:54;;;;;;;5.63;3.60;;;;;;;2.54;65.28;94627.78;4988372;28;20034;-71
2024/02/07 02:42:19;;;;;;;5.00;3.17;;;;;;;2.39;65.85;94626.88;5017125;28;20029;-71
2024/02/07 02:44:44;;;;;;;6.60;3.72;;;;;;;2.54;64.81;94610.66;5030436;28;20037;-71
2024/02/07 02:47:10;;;;;;;5.47;3.20;;;;;;;2.88;65.02;94634.47;5004202;28;20033;-71
2024/02/07 02:49:36;;;;;;;5.22;3.05;;;;;;;2.78;65.70;94630.72;5025578;28;20034;-71
2024/02/07 02:52:03;;;;;;;6.72;2.95;;;;;;;2.83;65.07;94629.56;4994835;28;20045;-71
2024/02/07 02:54:32;;;;;;;6.93;3.40;;;;;;;2.85;64.52;94614.94;4997684;28;20037;-72
2024/02/07 02:57:00;;;;;;;4.13;2.65;;;;;;;2.96;63.83;94636.59;5013103;28;20048;-71
2024/02/07 02:59:27;;;;;;;7.20;3.22;;;;;;;2.82;63.33;94589.44;5014412;28;20033;-71
2024/02/07 03:01:53;;;;;;;5.50;3.60;;;;;;;2.96;64.34;94627.16;4995851;28;20056;-71
2024/02/07 03:04:18;;;;;;;7.18;3.25;;;;;;;3.14;63.88;94623.53;4994594;28;20035;-71
2024/02/07 03:06:59;;;;;;;7.57;3.38;;;;;;;3.00;63.68;94620.09;5025019;28;20029;-71
2024/02/07 03:09:27;;;;;;;5.80;3.40;;;;;;;2.99;63.10;94618.47;4990556;28;20038;-71
2024/02/07 03:11:53;;;;;;;5.15;3.30;;;;;;;2.93;63.00;94605.97;4997252;28;20281;-72
2024/02/07 03:14:19;;;;;;;6.82;3.53;;;;;;;2.95;62.61;94612.66;5012215;28;20052;-71
2024/02/07 03:16:45;;;;;;;5.50;3.67;;;;;;;3.04;63.11;94630.13;4989922;28;20030;-71
2024/02/07 03:19:12;;;;;;;5.15;3.40;;;;;;;3.10;63.46;94627.22;4989228;28;20129;-71
2024/02/07 03:21:38;;;;;;;6.22;3.67;;;;;;;2.56;64.20;94610.56;4990464;28;20100;-71
2024/02/07 03:24:04;;;;;;;11.05;3.90;;;;;;;2.78;64.01;94623.88;4989866;28;20034;-71
2024/02/07 03:26:30;;;;;;;6.93;4.20;;;;;;;2.43;65.08;94623.25;5002410;28;20030;-73
2024/02/07 03:28:56;;;;;;;6.75;3.80;;;;;;;2.56;64.94;94611.38;4994586;28;20412;-71
2024/02/07 03:31:21;;;;;;;6.07;3.30;;;;;;;2.73;64.98;94614.75;5007620;28;20041;-71
2024/02/07 03:33:47;;;;;;;5.38;3.40;;;;;;;2.59;65.68;94615.53;5005986;28;20029;-71
2024/02/07 03:36:13;;;;;;;7.68;3.63;;;;;;;2.45;65.50;94621.41;5009558;28;20060;-71
2024/02/07 03:38:38;;;;;;;6.00;3.20;;;;;;;2.57;64.95;94610.50;5014531;28;20041;-71
2024/02/07 03:41:05;;;;;;;8.35;3.58;;;;;;;2.69;64.37;94609.81;4984702;28;20136;-71
2024/02/07 03:43:33;;;;;;;5.47;3.10;;;;;;;2.80;63.77;94588.69;5028476;28;20021;-71
2024/02/07 03:46:00;;;;;;;8.25;3.50;;;;;;;2.97;64.24;94603.13;4997577;28;20029;-71
2024/02/07 03:48:25;;;;;;;6.68;3.95;;;;;;;3.00;63.86;94615.78;5012398;28;20032;-71
2024/02/07 03:50:51;;;;;;;9.02;3.50;;;;;;;2.80;64.48;94603.25;5014070;28;20041;-71
2024/02/07 03:53:16;;;;;;;5.70;2.92;;;;;;;2.98;63.62;94606.53;5009413;28;20468;-71
2024/02/07 03:55:42;;;;;;;7.53;4.10;;;;;;;2.83;64.09;94603.09;5002184;28;20033;-71
2024/02/07 03:58:07;;;;;;;7.55;3.30;;;;;;;3.02;64.16;94611.41;4994741;28;20037;-71
2024/02/07 04:00:33;;;;;;;5.43;3.00;;;;;;;2.97;63.44;94612.59;5013643;28;20072;-72
2024/02/07 04:02:58;;;;;;;5.53;3.35;;;;;;;2.91;64.83;94609.44;4997550;28;20112;-71
2024/02/07 04:05:24;;;;;;;7.82;3.35;;;;;;;2.96;64.26;94616.06;5008069;28;20484;-71
2024/02/07 04:07:50;;;;;;;7.47;3.20;;;;;;;2.65;64.89;94602.38;5011922;28;20033;-71
2024/02/07 04:10:16;;;;;;;6.20;3.50;;;;;;;2.89;64.82;94621.53;4994596;28;20038;-71
2024/02/07 05:15:47;;;;;;;6.38;3.38;;;;;;;2.95;65.64;94594.69;4996130;28;20547;-71
2024/02/07 05:18:13;;;;;;;5.68;3.47;;;;;;;3.18;65.16;94590.84;5011522;28;20033;-71
2024/02/07 05:20:39;;;;;;;6.60;3.75;;;;;;;3.09;64.76;94591.34;5004657;28;20039;-72
2024/02/07 05:23:04;;;;;;;5.88;3.50;;;;;;;3.00;64.40;94574.72;5030757;28;20026;-72
2024/02/07 05:25:32;;;;;;;6.57;3.85;;;;;;;3.14;65.05;94566.25;5013148;28;20030;-74
2024/02/07 05:27:58;;;;;;;9.25;5.85;;;;;;;3.27;64.60;94587.72;5013300;28;20064;-74
2024/02/07 05:30:23;;;;;;;6.75;4.13;;;;;;;2.96;65.40;94580.97;4997889;28;20057;-73
2024/02/07 05:32:48;;;;;;;5.70;3.67;;;;;;;2.93;65.48;94568.31;5006037;28;20026;-73
2024/02/07 05:35:14;;;;;;;7.20;4.13;;;;;;;2.87;66.30;94594.28;5033228;28;20049;-74
2024/02/07 05:37:39;;;;;;;8.63;5.60;;;;;;;3.06;66.42;94602.59;5003032;28;20030;-73
2024/02/07 05:40:23;;;;;;;10.70;6.88;;;;;;;2.94;65.75;94608.44;5010246;28;20033;-74
2024/02/07 05:42:49;;;;;;;12.68;8.07;;;;;;;2.54;67.11;94607.28;5034509;28;20037;-74
2024/02/07 05:45:14;;;;;;;13.32;9.18;;;;;;;2.57;67.62;94605.38;5023791;28;20628;-74
2024/02/07 05:47:42;;;;;;;12.63;7.38;;;;;;;2.28;68.24;94593.28;4994377;28;20025;-73
2024/02/07 05:50:09;;;;;;;9.57;6.60;;;;;;;2.68;67.34;94615.03;5030955;28;20034;-74
2024/02/07 05:52:38;;;;;;;10.00;6.20;;;;;;;2.45;67.98;94603.44;5024889;28;20026;-74
2024/02/07 05:55:04;;;;;;;8.48;5.88;;;;;;;2.51;68.20;94599.72;5010987;28;20561;-74
2024/02/07 05:57:29;;;;;;;6.93;4.18;;;;;;;2.61;68.22;94603.44;5013479;28;20069;-74
2024/02/07 05:59:55;;;;;;;9.75;4.97;;;;;;;2.49;68.46;94597.25;5012298;28;20104;-75
2024/02/07 06:02:20;;;;;;;12.98;8.95;;;;;;;2.63;67.64;94599.06;5010263;28;20060;-80
2024/02/07 06:04:49;;;;;;;16.85;11.32;;;;;;;2.74;67.34;94611.31;4991579;28;20037;-74
2024/02/07 06:07:15;;;;;;;14.98;9.38;;;;;;;2.77;67.38;94616.25;4997343;28;20497;-71
2024/02/07 06:09:40;;;;;;;14.15;9.60;;;;;;;2.73;67.82;94619.91;5026369;28;20030;-71
2024/02/07 06:12:06;;;;;;;11.05;6.97;;;;;;;2.99;67.61;94613.34;5022214;28;20030;-71
2024/02/07 06:14:32;;;;;;;7.88;4.97;;;;;;;3.02;68.04;94611.41;5015494;28;20454;-72
2024/02/07 06:16:58;;;;;;;7.70;4.93;;;;;;;2.98;68.19;94604.81;5006116;28;20495;-74
2024/02/07 06:19:23;;;;;;;7.20;4.32;;;;;;;3.05;68.38;94607.84;5025267;28;20099;-75
2024/02/07 06:21:51;;;;;;;6.25;3.60;;;;;;;3.22;67.33;94617.97;5012129;28;20026;-75
2024/02/07 06:24:16;;;;;;;11.65;4.53;;;;;;;3.40;65.82;94604.97;4986367;28;20041;-74
2024/02/07 06:26:42;;;;;;;5.78;3.92;;;;;;;3.68;65.19;94607.63;4998354;28;20030;-75
2024/02/07 06:29:07;;;;;;;7.32;3.83;;;;;;;3.85;64.74;94595.50;5015926;28;20033;-75
2024/02/07 06:31:32;;;;;;;6.10;4.00;;;;;;;3.98;64.27;94586.97;4997307;28;20037;-75
2024/02/07 06:33:58;;;;;;;7.03;3.40;;;;;;;4.17;63.98;94611.53;5013970;28;20025;-75
2024/02/07 06:36:23;;;;;;;6.07;3.45;;;;;;;4.31;64.11;94600.41;4996209;28;20060;-74
2024/02/07 06:38:49;;;;;;;7.30;3.60;;;;;;;4.39;63.70;94609.31;5029572;28;20025;-75
2024/02/07 06:41:14;;;;;;;6.90;3.80;;;;;;;4.53;64.12;94602.50;4996377;28;20029;-75
2024/02/07 06:43:39;;;;;;;5.97;3.50;;;;;;;4.60;63.04;94609.72;5011714;28;20025;-75
2024/02/07 06:46:05;;;;;;;5.60;3.53;;;;;;;4.85;62.72;94613.34;5031285;28;20092;-75
2024/02/07 06:48:30;;;;;;;7.45;4.13;;;;;;;5.07;62.46;94608.47;5032358;28;20041;-75
2024/02/07 06:50:56;;;;;;;6.55;3.90;;;;;;;5.14;61.99;94614.03;4998121;28;20508;-75
2024/02/07 06:53:21;;;;;;;6.63;4.20;;;;;;;5.35;62.53;94617.81;4994744;28;20397;-75
2024/02/07 06:55:47;;;;;;;5.68;3.65;;;;;;;5.39;62.27;94618.41;5029108;28;20571;-75
2024/02/07 06:58:12;;;;;;;6.82;3.42;;;;;;;5.48;62.77;94619.56;5014427;28;20029;-75
2024/02/07 07:00:38;;;;;;;5.60;3.50;;;;;;;5.40;63.43;94614.91;5032403;28;20041;-75
2024/02/07 07:03:04;;;;;;;5.20;3.55;;;;;;;5.35;62.90;94616.97;4981820;28;20033;-75
2024/02/07 07:05:29;;;;;;;5.80;3.33;;;;;;;5.46;61.89;94608.53;5014405;28;20069;-75
2024/02/07 07:07:55;;;;;;;5.38;3.50;;;;;;;5.55;62.24;94615.66;5009734;28;20079;-75
2024/02/07 07:10:20;;;;;;;4.38;3.25;;;;;;;5.62;61.60;94603.19;4994540;28;20037;-74
2024/02/07 07:12:46;;;;;;;12.45;7.35;;;;;;;5.72;62.11;94612.78;4984531;28;20423;-75
2024/02/07 07:15:12;;;;;;;10.43;8.57;;;;;;;6.09;61.26;94612.09;5032023;28;20034;-74
2024/02/07 07:17:37;;;;;;;15.48;11.27;;;;;;;6.26;60.55;94609.97;4997885;28;20488;-75
2024/02/07 07:20:03;;;;;;;15.30;12.00;;;;;;;6.33;59.88;94607.00;5014051;28;20044;-75
2024/02/07 07:22:28;;;;;;;14.90;11.90;;;;;;;6.32;60.13;94598.41;5031673;28;20048;-75
2024/02/07 07:24:54;;;;;;;17.70;12.05;;;;;;;6.59;60.15;94610.34;4981144;28;20087;-74
2024/02/07 07:27:19;;;;;;;10.60;8.55;;;;;;;6.79;60.59;94593.44;5013814;28;20026;-74
2024/02/07 07:29:45;;;;;;;10.18;6.78;;;;;;;6.52;60.90;94602.22;5014090;28;20037;-75
2024/02/07 07:32:10;;;;;;;13.75;9.38;;;;;;;6.81;58.45;94605.28;5031100;28;20040;-75
2024/02/07 07:34:35;;;;;;;11.77;6.80;;;;;;;7.45;55.92;94594.63;4974951;28;1118198;-75
2024/02/07 07:37:01;;;;;;;11.73;7.25;;;;;;;7.35;56.90;94599.66;4998379;28;20049;-75
2024/02/07 07:39:27;;;;;;;10.38;7.13;;;;;;;7.81;56.18;94598.81;5032501;28;20051;-75
2024/02/07 07:41:53;;;;;;;9.63;6.35;;;;;;;8.01;55.25;94589.53;5014672;28;20488;-75
2024/02/07 07:44:24;;;;;;;8.50;5.35;;;;;;;8.15;54.54;94592.84;5014761;28;20638;-75
2024/02/07 07:46:50;;;;;;;9.93;6.78;;;;;;;8.88;52.58;94597.47;5014545;28;20049;-75
2024/02/07 07:49:15;;;;;;;8.75;5.20;;;;;;;9.60;49.83;94591.66;4998310;28;20060;-75
2024/02/07 07:51:41;;;;;;;8.95;5.32;;;;;;;9.68;50.41;94591.03;4998352;28;20496;-75
2024/02/07 07:54:06;;;;;;;8.20;5.60;;;;;;;9.40;51.45;94603.66;4997696;28;20037;-74
2024/02/07 07:56:32;;;;;;;10.60;7.30;;;;;;;9.57;51.15;94596.28;4996894;28;20040;-75
2024/02/07 07:58:58;;;;;;;13.20;8.95;;;;;;;9.46;50.48;94598.94;5014409;28;20499;-75
2024/02/07 08:01:24;;;;;;;10.98;7.75;;;;;;;9.79;51.07;94596.16;5014385;28;20473;-75
2024/02/07 08:03:50;;;;;;;13.30;8.10;;;;;;;10.02;50.21;94583.00;4996855;28;20512;-75
2024/02/07 08:06:15;;;;;;;11.75;8.10;;;;;;;10.46;48.48;94583.66;4995825;28;20207;-74
2024/02/07 08:08:41;;;;;;;22.88;14.07;;;;;;;10.06;49.63;94585.25;5014026;28;20060;-74
2024/02/07 08:11:06;;;;;;;10.02;6.47;;;;;;;10.10;49.49;94553.84;4978250;28;20091;-75
2024/02/07 08:13:32;;;;;;;8.93;5.75;;;;;;;9.88;50.03;94558.22;5025611;28;20087;-74
2024/02/07 08:15:59;;;;;;;8.90;4.68;;;;;;;9.83;50.85;94562.97;5000980;28;20032;-75
2024/02/07 08:18:31;;;;;;;11.20;5.07;;;;;;;9.56;51.82;94556.56;4995817;28;20038;-75
2024/02/07 08:20:57;;;;;;;6.93;5.03;;;;;;;9.51;52.23;94552.72;4978238;28;20510;-75
2024/02/07 08:23:22;;;;;;;7.70;5.13;;;;;;;9.49;51.84;94559.78;4977680;28;20030;-75
2024/02/07 08:25:48;;;;;;;7.38;4.80;;;;;;;9.69;51.12;94545.97;4977985;28;20041;-75
2024/02/07 08:28:13;;;;;;;8.32;5.03;;;;;;;9.75;51.41;94549.81;4994285;28;20028;-74
2024/02/07 08:30:39;;;;;;;8.55;6.28;;;;;;;9.79;51.34;94536.47;5013784;28;20054;-75
2024/02/07 08:33:04;;;;;;;11.05;6.35;;;;;;;10.00;51.07;94551.19;4984776;28;20038;-75
2024/02/07 08:35:30;;;;;;;12.60;6.45;;;;;;;9.67;50.88;94511.59;4995207;28;20056;-75
2024/02/07 08:37:58;;;;;;;10.75;6.07;;;;;;;9.93;50.91;94557.84;5002553;28;20083;-75
2024/02/07 08:40:25;;;;;;;9.20;6.28;;;;;;;10.11;50.28;94547.69;5031640;28;20048;-75
2024/02/07 08:42:50;;;;;;;13.38;7.60;;;;;;;9.90;50.82;94542.53;5020692;28;20104;-75
2024/02/07 08:45:17;;;;;;;11.70;7.93;;;;;;;9.87;51.32;94553.19;4977767;28;20033;-75
2024/02/07 08:47:43;;;;;;;13.02;7.32;;;;;;;10.21;49.44;94536.38;4994730;28;20139;-75
2024/02/07 08:50:08;;;;;;;14.43;11.15;;;;;;;10.01;50.69;94551.06;4993473;28;20033;-75
2024/02/07 08:52:36;;;;;;;22.13;13.65;;;;;;;10.33;50.10;94557.06;5013862;28;20040;-75
2024/02/07 08:55:02;;;;;;;12.38;8.95;;;;;;;10.65;49.18;94549.94;4996985;28;20047;-75
2024/02/07 08:57:28;;;;;;;10.85;6.65;;;;;;;10.29;50.05;94544.38;4997004;28;20033;-75
2024/02/07 08:59:53;;;;;;;22.35;16.42;;;;;;;9.82;51.44;94556.16;5013543;28;20036;-75
2024/02/07 09:02:19;;;;;;;10.23;8.18;;;;;;;9.84;51.19;94547.28;5013334;28;20385;-76
2024/02/07 09:04:45;;;;;;;11.80;7.82;;;;;;;9.93;50.81;94544.88;5013357;28;20091;-75
2024/02/07 09:07:11;;;;;;;10.10;6.60;;;;;;;10.05;50.38;94529.06;5013239;28;20087;-75
2024/02/07 09:09:36;;;;;;;10.38;6.60;;;;;;;10.61;50.23;94543.34;4996823;28;20474;-75
2024/02/07 09:12:01;;;;;;;10.93;6.22;;;;;;;10.74;49.66;94546.53;5013476;28;20474;-75
2024/02/07 09:14:27;;;;;;;8.10;5.82;;;;;;;10.87;48.41;94527.28;5013321;28;20554;-75
2024/02/07 09:16:52;;;;;;;7.75;5.05;;;;;;;10.94;48.97;94536.97;5013208;28;20059;-75
2024/02/07 09:19:18;;;;;;;9.60;5.05;;;;;;;10.91;48.31;94539.03;4996705;28;20084;-75
2024/02/07 09:21:44;;;;;;;7.75;4.03;;;;;;;10.98;47.63;94539.28;5013084;28;20092;-75
2024/02/07 09:24:09;;;;;;;6.97;4.40;;;;;;;11.30;46.38;94523.41;4996786;28;20510;-75
2024/02/07 09:26:35;;;;;;;7.57;5.28;;;;;;;10.86;48.11;94528.22;5013287;28;20026;-75
2024/02/07 09:29:00;;;;;;;9.00;5.35;;;;;;;10.68;48.63;94521.09;5012971;28;20514;-75
2024/02/07 09:31:25;;;;;;;8.82;5.93;;;;;;;10.64;48.58;94514.53;5013003;28;20419;-75
2024/02/07 09:33:51;;;;;;;13.05;5.70;;;;;;;10.57;48.60;94516.00;5012901;28;20415;-75
2024/02/07 09:36:16;;;;;;;8.98;4.60;;;;;;;10.49;48.60;94518.44;4991702;28;20067;-75
2024/02/07 09:38:42;;;;;;;8.10;5.22;;;;;;;10.71;48.58;94513.00;4991150;28;20030;-75
2024/02/07 09:41:07;;;;;;;6.72;4.50;;;;;;;10.90;47.78;94504.41;4990139;28;20035;-75
2024/02/07 09:43:33;;;;;;;11.05;5.00;;;;;;;11.25;47.54;94505.63;4973849;28;20026;-76
2024/02/07 09:45:58;;;;;;;9.50;4.55;;;;;;;11.78;46.96;94512.94;4990215;28;20039;-75
2024/02/07 09:48:28;;;;;;;7.85;5.00;;;;;;;11.50;46.61;94493.81;4990116;28;20081;-75
2024/02/07 09:50:53;;;;;;;8.60;4.93;;;;;;;11.29;47.17;94488.00;4990222;28;20395;-75
2024/02/07 09:53:19;;;;;;;7.15;4.97;;;;;;;11.66;46.64;94482.00;4990050;28;20101;-75
2024/02/07 09:55:46;;;;;;;6.90;4.60;;;;;;;12.02;45.78;94473.41;4973636;28;20129;-75
2024/02/07 09:58:12;;;;;;;8.45;4.90;;;;;;;11.90;46.46;94471.16;4990070;28;20042;-75
2024/02/07 10:00:37;;;;;;;6.88;4.75;;;;;;;12.17;46.17;94458.13;4989895;28;20034;-75
2024/02/07 10:03:06;;;;;;;10.55;5.13;;;;;;;12.25;45.95;94463.41;4989927;28;20030;-75
2024/02/07 10:05:31;;;;;;;10.50;5.00;;;;;;;12.28;45.50;94452.72;4973940;28;20031;-75
2024/02/07 10:07:56;;;;;;;7.93;4.55;;;;;;;12.46;45.67;94452.75;4989897;28;20404;-75
2024/02/07 10:10:22;;;;;;;13.63;6.25;;;;;;;12.62;45.55;94433.03;4990938;28;20042;-75
2024/02/07 10:12:47;;;;;;;8.93;4.70;;;;;;;12.65;44.99;94432.75;4989896;28;20027;-75
2024/02/07 10:15:13;;;;;;;9.55;5.60;;;;;;;12.79;44.81;94437.44;4989894;28;20049;-75
2024/02/07 10:17:38;;;;;;;8.32;5.03;;;;;;;12.62;45.32;94426.06;4989748;28;20117;-75
2024/02/07 10:20:10;;;;;;;14.77;6.55;;;;;;;12.06;46.70;94440.09;4993378;28;20535;-76
2024/02/07 10:22:42;;;;;;;14.50;6.18;;;;;;;11.99;46.66;94434.66;4977249;28;20026;-75
2024/02/07 10:25:10;;;;;;;9.95;6.20;;;;;;;12.20;46.38;94417.94;4993450;28;20473;-75
2024/02/07 10:27:36;;;;;;;13.07;6.63;;;;;;;12.40;45.83;94418.66;4977229;28;20412;-75
2024/02/07 10:30:07;;;;;;;7.90;5.13;;;;;;;12.40;45.54;94396.03;4993311;28;20049;-75
2024/02/07 10:32:33;;;;;;;11.18;5.80;;;;;;;12.10;46.30;94427.63;4993250;28;20031;-75
2024/02/07 10:34:58;;;;;;;11.70;6.07;;;;;;;12.41;45.17;94409.88;4992932;28;20594;-75
2024/02/07 10:37:24;;;;;;;9.82;5.45;;;;;;;12.27;45.76;94408.59;4993007;28;20033;-75
2024/02/07 10:39:49;;;;;;;12.48;5.40;;;;;;;12.37;45.33;94403.31;4994501;28;20030;-75
2024/02/07 10:42:15;;;;;;;10.43;5.30;;;;;;;12.18;45.69;94406.88;4976743;28;20081;-75
2024/02/07 10:44:40;;;;;;;11.18;5.68;;;;;;;12.05;46.25;94410.63;4993020;28;20030;-75
2024/02/07 10:47:08;;;;;;;7.65;5.28;;;;;;;12.03;46.18;94399.53;4993078;28;20508;-75
2024/02/07 10:49:33;;;;;;;8.23;5.60;;;;;;;12.28;46.13;94399.81;4976807;28;20122;-75
2024/02/07 10:51:58;;;;;;;11.23;6.03;;;;;;;12.38;46.02;94386.72;4976480;28;20045;-75
2024/02/07 10:54:25;;;;;;;9.85;6.03;;;;;;;12.45;46.01;94378.19;4992761;28;20038;-75
2024/02/07 10:56:50;;;;;;;8.38;5.60;;;;;;;12.42;46.06;94375.03;4993051;28;20027;-75
2024/02/07 10:59:16;;;;;;;8.20;6.05;;;;;;;12.56;45.70;94361.47;4992605;28;20034;-75
2024/02/07 11:01:41;;;;;;;9.07;5.80;;;;;;;12.58;45.77;94338.72;4976462;28;20038;-75
2024/02/07 11:04:07;;;;;;;9.88;6.03;;;;;;;12.62;45.32;94339.22;4992549;28;20045;-75
2024/02/07 11:06:34;;;;;;;9.50;5.90;;;;;;;12.80;44.95;94337.41;4976279;28;20031;-75
2024/02/07 11:09:00;;;;;;;10.00;5.50;;;;;;;12.77;45.23;94336.91;4992529;28;20504;-75
2024/02/07 11:11:26;;;;;;;11.25;5.97;;;;;;;12.61;46.09;94338.41;4992541;28;20027;-75
2024/02/07 11:13:52;;;;;;;11.75;5.97;;;;;;;12.72;45.46;94329.53;4992285;28;20038;-75
2024/02/07 11:16:18;;;;;;;10.48;5.95;;;;;;;12.78;45.68;94333.31;4993599;28;20023;-75
2024/02/07 11:18:44;;;;;;;12.07;5.60;;;;;;;12.72;45.63;94334.75;4992167;28;20049;-75
2024/02/07 11:21:09;;;;;;;14.63;5.60;;;;;;;12.68;45.60;94323.00;4992154;28;20481;-75
2024/02/07 11:23:36;;;;;;;11.85;5.65;;;;;;;12.58;45.88;94296.22;4992184;28;20033;-75
2024/02/07 11:26:01;;;;;;;9.38;5.18;;;;;;;12.70;45.91;94324.50;4960054;28;20473;-75
2024/02/07 11:28:27;;;;;;;7.70;5.20;;;;;;;12.91;45.17;94311.09;4975885;28;20033;-75
2024/02/07 11:30:55;;;;;;;14.00;5.25;;;;;;;13.09;45.18;94328.47;4991042;28;20041;-75
2024/02/07 11:33:20;;;;;;;9.68;5.25;;;;;;;12.96;45.63;94332.31;4992288;28;20125;-75
2024/02/07 11:35:46;;;;;;;8.13;5.18;;;;;;;12.85;45.60;94314.31;4991765;28;20042;-75
2024/02/07 11:38:11;;;;;;;11.27;5.18;;;;;;;13.06;45.31;94316.56;4975618;28;20038;-75
2024/02/07 11:40:40;;;;;;;10.30;6.38;;;;;;;12.91;45.30;94294.66;4993478;28;20034;-75
2024/02/07 11:43:09;;;;;;;8.25;4.68;;;;;;;13.18;44.98;94310.13;4991892;28;20425;-75
2024/02/07 11:45:36;;;;;;;7.28;4.82;;;;;;;13.48;43.93;94309.78;4976301;28;20035;-75
2024/02/07 11:48:02;;;;;;;9.88;4.50;;;;;;;13.50;43.48;94303.44;4975630;28;20042;-75
2024/02/07 11:50:34;;;;;;;10.70;4.57;;;;;;;13.40;43.93;94300.97;4975423;28;20115;-75
2024/02/07 11:52:59;;;;;;;10.07;4.60;;;;;;;12.95;44.73;94262.06;4991764;28;20035;-76
2024/02/07 11:55:25;;;;;;;10.88;4.70;;;;;;;13.54;44.03;94293.50;4991734;28;20030;-75
2024/02/07 11:57:54;;;;;;;8.10;4.05;;;;;;;13.35;44.04;94287.56;4991604;28;20515;-75
2024/02/07 12:00:21;;;;;;;6.78;4.38;;;;;;;13.57;42.90;94290.59;4991660;28;20038;-75
2024/02/07 12:02:50;;;;;;;8.85;4.20;;;;;;;13.62;43.15;94285.69;4975550;28;20413;-75
2024/02/07 12:05:16;;;;;;;9.45;4.28;;;;;;;13.75;42.49;94270.41;4975321;28;20038;-75
2024/02/07 12:07:42;;;;;;;6.80;4.05;;;;;;;13.74;42.37;94247.91;4991418;28;20022;-75
2024/02/07 12:10:08;;;;;;;7.45;4.13;;;;;;;13.72;42.68;94265.50;4975377;28;20459;-75
2024/02/07 12:12:33;;;;;;;6.43;3.53;;;;;;;13.39;43.03;94269.81;4991342;28;20034;-75
2024/02/07 12:14:58;;;;;;;8.45;4.22;;;;;;;13.77;42.24;94250.19;4992629;28;20034;-75
2024/02/07 12:17:24;;;;;;;5.78;3.42;;;;;;;13.81;41.52;94212.34;4991141;28;20037;-75
2024/02/07 12:19:49;;;;;;;9.90;3.35;;;;;;;14.07;41.18;94232.28;4975126;28;20026;-75
2024/02/07 12:22:16;;;;;;;10.45;3.42;;;;;;;13.99;40.81;94222.66;4974933;28;20034;-75
2024/02/07 12:24:42;;;;;;;8.27;3.30;;;;;;;14.05;41.28;94234.25;4991038;28;20038;-75
2024/02/07 12:27:08;;;;;;;6.53;3.08;;;;;;;14.05;40.75;94223.81;4974984;28;20030;-75
2024/02/07 12:29:34;;;;;;;6.30;2.90;;;;;;;13.95;40.53;94208.28;4974865;28;20053;-75
2024/02/07 12:32:00;;;;;;;7.63;3.17;;;;;;;14.13;39.80;94220.38;4974780;28;20498;-75
2024/02/07 12:34:26;;;;;;;7.30;2.90;;;;;;;14.13;39.91;94223.00;4997377;28;20500;-75